createdAt,value
2023-12-12T00:01:07.170Z,93832.81
2023-12-12T00:03:34.697Z,93809.00
2023-12-12T00:06:02.606Z,93823.66
2023-12-12T00:08:29.269Z,93815.47
2023-12-12T00:10:58.557Z,93806.41
2023-12-12T00:13:25.281Z,93809.47
2023-12-12T00:15:52.045Z,93814.97
2023-12-12T00:18:18.830Z,93795.94
2023-12-12T00:20:46.082Z,93793.69
2023-12-12T00:23:12.738Z,93801.22
2023-12-12T00:25:39.341Z,93819.19
2023-12-12T00:28:06.121Z,93823.34
2023-12-12T00:30:32.835Z,93832.25
2023-12-12T00:32:59.605Z,93821.09
2023-12-12T00:35:26.357Z,93824.78
2023-12-12T00:37:53.370Z,93825.00
2023-12-12T00:40:20.546Z,93832.03
2023-12-12T00:42:47.231Z,93850.03
2023-12-12T00:45:14.009Z,93848.47
2023-12-12T00:47:40.776Z,93836.84
2023-12-12T00:50:08.325Z,93812.91
2023-12-12T00:52:36.123Z,93803.25
2023-12-12T00:55:03.506Z,93820.97
2023-12-12T00:57:30.758Z,93831.84
2023-12-12T00:59:57.590Z,93814.91
2023-12-12T01:02:27.517Z,93824.69
2023-12-12T01:04:54.811Z,93817.13
2023-12-12T01:07:21.562Z,93829.53
2023-12-12T01:09:48.566Z,93848.47
2023-12-12T01:12:15.272Z,93842.34
2023-12-12T01:14:41.991Z,93858.91
2023-12-12T01:17:08.706Z,93861.53
2023-12-12T01:19:35.520Z,93852.06
2023-12-12T01:22:02.338Z,93855.13
2023-12-12T01:24:31.381Z,93840.41
2023-12-12T01:26:58.036Z,93847.81
2023-12-12T01:29:24.679Z,93847.38
2023-12-12T01:31:51.377Z,93845.50
2023-12-12T01:34:18.214Z,93845.59
2023-12-12T01:36:44.942Z,93844.75
2023-12-12T01:39:11.632Z,93830.50
2023-12-12T01:41:38.370Z,93819.47
2023-12-12T01:44:05.123Z,93807.50
2023-12-12T01:46:33.589Z,93802.41
2023-12-12T01:49:00.545Z,93790.53
2023-12-12T01:51:27.572Z,93786.69
2023-12-12T01:53:54.544Z,93801.38
2023-12-12T01:56:21.948Z,93810.06
2023-12-12T01:58:52.400Z,93810.66
2023-12-12T02:01:20.108Z,93819.00
2023-12-12T02:03:47.303Z,93830.13
2023-12-12T02:06:22.801Z,93821.78
2023-12-12T02:08:53.514Z,93828.44
2023-12-12T02:11:20.568Z,93829.19
2023-12-12T02:13:47.312Z,93827.22
2023-12-12T02:16:14.988Z,93832.44
2023-12-12T02:18:41.986Z,93825.91
2023-12-12T02:21:08.860Z,93831.75
2023-12-12T02:23:35.718Z,93826.78
2023-12-12T02:26:03.996Z,93833.69
2023-12-12T02:28:30.774Z,93855.91
2023-12-12T02:30:59.892Z,93854.09
2023-12-12T02:33:26.744Z,93858.63
2023-12-12T02:35:53.437Z,93857.75
2023-12-12T02:38:20.168Z,93857.06
2023-12-12T02:40:46.906Z,93856.75
2023-12-12T02:43:13.853Z,93863.41
2023-12-12T02:45:40.579Z,93878.25
2023-12-12T02:48:07.332Z,93894.84
2023-12-12T02:50:33.977Z,93885.94
2023-12-12T02:53:00.704Z,93892.53
2023-12-12T02:55:27.420Z,93899.91
2023-12-12T02:57:54.163Z,93887.09
2023-12-12T03:00:21.025Z,93866.00
2023-12-12T03:02:47.968Z,93847.91
2023-12-12T03:05:14.722Z,93855.53
2023-12-12T03:07:41.546Z,93852.94
2023-12-12T03:10:08.952Z,93844.50
2023-12-12T03:12:35.779Z,93842.84
2023-12-12T03:15:02.558Z,93843.72
2023-12-12T03:17:29.374Z,93835.16
2023-12-12T03:19:56.447Z,93838.81
2023-12-12T03:22:23.072Z,93820.25
2023-12-12T03:24:49.770Z,93821.47
2023-12-12T03:27:16.460Z,93837.63
2023-12-12T03:29:43.197Z,93837.16
2023-12-12T03:32:09.886Z,93831.63
2023-12-12T03:34:36.657Z,93832.59
2023-12-12T03:37:03.406Z,93814.84
2023-12-12T03:39:30.058Z,93808.06
2023-12-12T03:41:56.688Z,93821.56
2023-12-12T03:44:23.293Z,93820.31
2023-12-12T03:46:49.924Z,93821.25
2023-12-12T03:49:16.729Z,93825.16
2023-12-12T03:51:43.829Z,93829.97
2023-12-12T03:54:10.493Z,93824.75
2023-12-12T03:56:37.109Z,93814.19
2023-12-12T03:59:03.911Z,93816.81
2023-12-12T04:01:30.719Z,93819.09
2023-12-12T04:03:57.557Z,93826.38
2023-12-12T04:06:24.506Z,93834.28
2023-12-12T04:08:51.711Z,93836.72
2023-12-12T04:11:18.372Z,93843.72
2023-12-12T04:13:45.098Z,93842.47
2023-12-12T04:16:11.908Z,93856.03
2023-12-12T04:18:38.677Z,93851.75
2023-12-12T04:21:06.744Z,93875.06
2023-12-12T04:23:36.363Z,93883.16
2023-12-12T04:26:04.167Z,93882.75
2023-12-12T04:28:31.083Z,93879.63
2023-12-12T04:30:57.829Z,93872.38
2023-12-12T04:33:24.478Z,93882.81
2023-12-12T04:35:51.167Z,93882.69
2023-12-12T04:38:18.177Z,93884.81
2023-12-12T04:40:44.803Z,93896.50
2023-12-12T04:43:11.505Z,93882.50
2023-12-12T04:45:38.172Z,93892.31
2023-12-12T04:48:05.187Z,93898.81
2023-12-12T04:50:32.054Z,93894.47
2023-12-12T04:52:58.761Z,93879.19
2023-12-12T04:55:25.468Z,93885.09
2023-12-12T04:57:52.270Z,93897.00
2023-12-12T05:00:19.752Z,93897.28
2023-12-12T05:02:47.122Z,93897.91
2023-12-12T05:05:14.014Z,93897.78
2023-12-12T05:07:40.890Z,93908.69
2023-12-12T05:10:08.368Z,93897.38
2023-12-12T05:12:36.089Z,93927.97
2023-12-12T05:15:03.619Z,93930.47
2023-12-12T05:17:30.854Z,93923.06
2023-12-12T05:20:00.468Z,93939.13
2023-12-12T05:22:27.520Z,93941.91
2023-12-12T05:24:54.252Z,93943.50
2023-12-12T05:27:21.931Z,93933.44
2023-12-12T05:29:48.753Z,93940.66
2023-12-12T05:32:15.844Z,93931.41
2023-12-12T05:34:42.739Z,93935.81
2023-12-12T05:37:09.563Z,93916.63
2023-12-12T05:39:36.468Z,93914.88
2023-12-12T05:42:04.224Z,93917.41
2023-12-12T05:44:33.152Z,93924.94
2023-12-12T05:47:00.231Z,93928.88
2023-12-12T05:49:27.186Z,93933.38
2023-12-12T05:51:54.136Z,93927.16
2023-12-12T05:54:23.940Z,93938.13
2023-12-12T05:56:52.694Z,93940.94
2023-12-12T05:59:19.381Z,93956.81
2023-12-12T06:01:46.174Z,93966.34
2023-12-12T06:04:16.038Z,93953.19
2023-12-12T06:06:44.554Z,93944.78
2023-12-12T06:09:12.901Z,93947.53
2023-12-12T06:11:40.420Z,93937.59
2023-12-12T06:14:07.471Z,93940.22
2023-12-12T06:16:35.666Z,93931.59
2023-12-12T06:19:06.271Z,93928.72
2023-12-12T06:21:34.291Z,93939.25
2023-12-12T06:24:03.435Z,93940.75
2023-12-12T06:26:31.095Z,93920.84
2023-12-12T06:28:57.876Z,93925.06
2023-12-12T06:31:24.981Z,93916.53
2023-12-12T06:33:53.307Z,93918.97
2023-12-12T06:36:20.289Z,93904.78
2023-12-12T06:38:47.101Z,93901.03
2023-12-12T06:41:13.739Z,93904.44
2023-12-12T06:43:41.127Z,93910.97
2023-12-12T06:46:09.288Z,93932.03
2023-12-12T06:48:38.344Z,93935.78
2023-12-12T06:51:06.173Z,93945.84
2023-12-12T06:53:32.972Z,93949.22
2023-12-12T06:55:59.611Z,93951.53
2023-12-12T06:58:26.329Z,93975.94
2023-12-12T07:00:53.273Z,93981.78
2023-12-12T07:03:20.241Z,93987.47
2023-12-12T07:05:47.097Z,93980.31
2023-12-12T07:08:13.840Z,93992.69
2023-12-12T07:10:41.541Z,93987.88
2023-12-12T07:15:52.542Z,94000.66
2023-12-12T07:18:19.352Z,93996.59
2023-12-12T07:20:46.153Z,93985.41
2023-12-12T07:23:16.013Z,93982.16
2023-12-12T07:25:44.381Z,93982.84
2023-12-12T07:28:11.353Z,93979.59
2023-12-12T07:30:38.197Z,93989.94
2023-12-12T07:33:05.152Z,93982.16
2023-12-12T07:35:31.940Z,93980.75
2023-12-12T07:37:59.201Z,93980.00
2023-12-12T07:40:25.989Z,93982.06
2023-12-12T07:42:52.826Z,93974.16
2023-12-12T07:45:19.751Z,93966.25
2023-12-12T07:47:47.015Z,93971.00
2023-12-12T07:50:14.060Z,93982.03
2023-12-12T07:52:41.126Z,93977.56
2023-12-12T07:55:08.133Z,93976.72
2023-12-12T07:57:35.421Z,93979.41
2023-12-12T08:00:02.351Z,93974.38
2023-12-12T08:02:29.868Z,93973.31
2023-12-12T08:04:56.508Z,93976.66
2023-12-12T08:07:24.261Z,93969.16
2023-12-12T08:09:51.130Z,93967.59
2023-12-12T08:12:18.269Z,93963.75
2023-12-12T08:14:47.445Z,93956.88
2023-12-12T08:17:15.726Z,93969.31
2023-12-12T08:19:43.382Z,93968.16
2023-12-12T08:22:10.223Z,93969.72
2023-12-12T08:24:36.940Z,93967.38
2023-12-12T08:27:03.681Z,93954.50
2023-12-12T08:29:32.229Z,93965.53
2023-12-12T08:31:59.432Z,93950.94
2023-12-12T08:34:26.506Z,93950.50
2023-12-12T08:36:53.259Z,93949.13
2023-12-12T08:39:20.236Z,93942.88
2023-12-12T08:41:46.953Z,93935.31
2023-12-12T08:44:13.644Z,93932.19
2023-12-12T08:46:45.010Z,93945.16
2023-12-12T08:49:12.105Z,93955.56
2023-12-12T08:51:40.544Z,93960.66
2023-12-12T08:54:07.543Z,93960.31
2023-12-12T08:56:34.368Z,93959.38
2023-12-12T08:59:01.109Z,93953.59
2023-12-12T09:01:28.114Z,93956.84
2023-12-12T09:03:55.387Z,93955.44
2023-12-12T09:06:22.299Z,93971.63
2023-12-12T09:08:49.222Z,93953.03
2023-12-12T09:11:16.248Z,93964.09
2023-12-12T09:13:44.507Z,93963.75
2023-12-12T09:16:11.590Z,93964.22
2023-12-12T09:18:39.216Z,93969.50
2023-12-12T09:21:07.842Z,93981.00
2023-12-12T09:23:34.847Z,93981.38
2023-12-12T09:26:02.417Z,93986.41
2023-12-12T09:28:29.103Z,93989.63
2023-12-12T09:30:55.924Z,93993.66
2023-12-12T09:33:23.079Z,93990.03
2023-12-12T09:35:51.285Z,93989.34
2023-12-12T09:38:18.158Z,93986.13
2023-12-12T09:40:45.182Z,93965.25
2023-12-12T09:43:13.809Z,93965.94
2023-12-12T09:45:46.674Z,93967.59
2023-12-12T09:48:17.210Z,93956.91
2023-12-12T09:50:48.454Z,93955.03
2023-12-12T09:53:15.683Z,93952.22
2023-12-12T09:55:42.569Z,93947.28
2023-12-12T09:58:09.325Z,93943.34
2023-12-12T10:00:36.120Z,93943.81
2023-12-12T10:03:06.672Z,93945.44
2023-12-12T10:05:39.390Z,93945.38
2023-12-12T10:08:14.038Z,93941.84
2023-12-12T10:10:44.790Z,93941.66
2023-12-12T10:13:12.405Z,93935.84
2023-12-12T10:15:39.249Z,93937.75
2023-12-12T10:18:06.534Z,93940.19
2023-12-12T10:20:36.655Z,93945.88
2023-12-12T10:23:06.470Z,93941.25
2023-12-12T10:25:35.732Z,93955.69
2023-12-12T10:28:03.409Z,93953.63
2023-12-12T10:30:30.636Z,93959.94
2023-12-12T10:32:57.618Z,93963.41
2023-12-12T10:35:26.606Z,93959.78
2023-12-12T10:37:54.456Z,93943.06
2023-12-12T10:40:23.935Z,93951.41
2023-12-12T10:42:52.288Z,93948.09
2023-12-12T10:45:19.438Z,93945.44
2023-12-12T10:47:51.940Z,93943.00
2023-12-12T10:50:20.397Z,93946.75
2023-12-12T10:52:49.926Z,93964.53
2023-12-12T10:55:18.526Z,93965.13
2023-12-12T10:57:48.340Z,93975.94
2023-12-12T11:00:19.038Z,93977.75
2023-12-12T11:02:47.843Z,93980.34
2023-12-12T11:05:16.742Z,93989.75
2023-12-12T11:07:49.644Z,93976.03
2023-12-12T11:10:20.665Z,93977.13
2023-12-12T11:12:52.877Z,93977.88
2023-12-12T11:15:20.666Z,93964.78
2023-12-12T11:17:48.905Z,93976.56
2023-12-12T11:20:18.540Z,93971.47
2023-12-12T11:22:53.313Z,93968.03
2023-12-12T11:25:22.401Z,93959.66
2023-12-12T11:27:58.669Z,93965.34
2023-12-12T11:30:51.859Z,93960.88
2023-12-12T11:33:18.637Z,93955.38
2023-12-12T11:35:47.171Z,93957.25
2023-12-12T11:38:31.287Z,93951.06
2023-12-12T11:41:10.796Z,93956.41
2023-12-12T11:43:37.659Z,93952.75
2023-12-12T11:46:21.979Z,93938.25
2023-12-12T11:48:49.122Z,93937.41
2023-12-12T11:51:34.559Z,93928.19
2023-12-12T11:54:08.043Z,93934.09
2023-12-12T11:56:35.228Z,93926.84
2023-12-12T11:59:02.327Z,93927.53
2023-12-12T12:01:29.150Z,93924.94
2023-12-12T12:03:55.920Z,93924.66
2023-12-12T12:06:22.816Z,93938.50
2023-12-12T12:08:51.628Z,93924.41
2023-12-12T12:11:18.340Z,93932.63
2023-12-12T12:13:45.093Z,93919.50
2023-12-12T12:16:12.361Z,93911.41
2023-12-12T12:18:39.943Z,93916.69
2023-12-12T12:21:09.127Z,93927.47
2023-12-12T12:23:40.111Z,93923.53
2023-12-12T12:26:07.178Z,93923.78
2023-12-12T12:28:35.184Z,93935.47
2023-12-12T12:31:03.119Z,93943.75
2023-12-12T12:33:34.013Z,93948.47
2023-12-12T12:36:00.863Z,93941.25
2023-12-12T12:38:35.264Z,93940.34
2023-12-12T12:41:02.107Z,93945.19
2023-12-12T12:43:28.862Z,93940.41
2023-12-12T12:45:57.735Z,93935.75
2023-12-12T12:48:28.653Z,93939.41
2023-12-12T12:50:57.156Z,93940.47
2023-12-12T12:53:23.855Z,93943.97
2023-12-12T12:55:50.768Z,93940.44
2023-12-12T12:58:17.671Z,93939.38
2023-12-12T13:00:46.925Z,93936.50
2023-12-12T13:03:14.693Z,93938.56
2023-12-12T13:05:41.834Z,93940.03
2023-12-12T13:08:08.722Z,93933.94
2023-12-12T13:10:44.083Z,93930.47
2023-12-12T13:13:17.370Z,93934.25
2023-12-12T13:15:44.326Z,93936.03
2023-12-12T13:18:11.203Z,93928.69
2023-12-12T13:20:38.045Z,93925.06
2023-12-12T13:23:04.767Z,93948.47
2023-12-12T13:25:32.660Z,93947.16
2023-12-12T13:27:59.708Z,93951.97
2023-12-12T13:30:26.957Z,93949.50
2023-12-12T13:32:54.001Z,93927.94
2023-12-12T13:35:33.749Z,93926.97
2023-12-12T13:38:04.866Z,93934.25
2023-12-12T13:40:32.846Z,93933.03
2023-12-12T13:42:59.861Z,93941.53
2023-12-12T13:45:26.728Z,93940.63
2023-12-12T13:47:54.123Z,93948.41
2023-12-12T13:50:22.760Z,93938.06
2023-12-12T13:52:49.573Z,93937.78
2023-12-12T13:55:16.268Z,93940.44
2023-12-12T13:57:42.989Z,93933.66
2023-12-12T14:00:10.986Z,93930.09
2023-12-12T14:02:38.624Z,93935.50
2023-12-12T14:05:06.369Z,93929.94
2023-12-12T14:07:34.107Z,93936.91
2023-12-12T14:10:00.870Z,93935.50
2023-12-12T14:12:27.683Z,93938.84
2023-12-12T14:14:54.769Z,93940.75
2023-12-12T14:17:21.817Z,93938.75
2023-12-12T14:19:48.757Z,93942.16
2023-12-12T14:22:15.604Z,93942.97
2023-12-12T14:24:42.383Z,93947.72
2023-12-12T14:27:09.182Z,93943.19
2023-12-12T14:29:36.305Z,93946.13
2023-12-12T14:32:03.067Z,93944.94
2023-12-12T14:34:29.962Z,93946.97
2023-12-12T14:36:56.749Z,93954.09
2023-12-12T14:39:24.740Z,93951.97
2023-12-12T14:41:51.346Z,93956.75
2023-12-12T14:44:18.040Z,93955.31
2023-12-12T14:46:44.791Z,93955.31
2023-12-12T14:49:11.636Z,93955.31
2023-12-12T14:51:38.448Z,93953.91
2023-12-12T14:54:05.657Z,93950.28
2023-12-12T14:56:33.559Z,93950.44
2023-12-12T14:59:00.536Z,93942.88
2023-12-12T15:01:27.885Z,93941.03
2023-12-12T15:03:55.351Z,93944.66
2023-12-12T15:06:23.182Z,93939.88
2023-12-12T15:08:49.880Z,93944.78
2023-12-12T15:11:16.577Z,93948.00
2023-12-12T15:13:43.289Z,93944.25
2023-12-12T15:16:10.866Z,93939.69
2023-12-12T15:18:38.161Z,93933.28
2023-12-12T15:21:06.076Z,93944.09
2023-12-12T15:23:36.564Z,93935.34
2023-12-12T15:26:04.504Z,93947.22
2023-12-12T15:28:31.242Z,93947.06
2023-12-12T15:30:59.524Z,93942.50
2023-12-12T15:33:27.071Z,93944.53
2023-12-12T15:35:54.044Z,93939.69
2023-12-12T15:38:20.756Z,93941.34
2023-12-12T15:40:47.706Z,93934.22
2023-12-12T15:43:14.996Z,93940.81
2023-12-12T15:45:42.207Z,93941.78
2023-12-12T15:48:09.137Z,93934.34
2023-12-12T15:50:37.214Z,93934.88
2023-12-12T15:53:04.051Z,93945.63
2023-12-12T15:55:31.217Z,93946.28
2023-12-12T15:57:58.474Z,93955.28
2023-12-12T16:00:25.827Z,93951.69
2023-12-12T16:02:52.686Z,93951.19
2023-12-12T16:05:20.684Z,93951.50
2023-12-12T16:07:48.772Z,93956.72
2023-12-12T16:10:16.613Z,93958.19
2023-12-12T16:12:43.373Z,93954.00
2023-12-12T16:15:10.239Z,93956.00
2023-12-12T16:17:37.931Z,93955.03
2023-12-12T16:20:06.661Z,93961.34
2023-12-12T16:22:34.819Z,93962.50
2023-12-12T16:25:01.882Z,93951.91
2023-12-12T16:27:28.790Z,93952.38
2023-12-12T16:29:55.578Z,93956.13
2023-12-12T16:32:23.495Z,93967.94
2023-12-12T16:34:52.847Z,93966.81
2023-12-12T16:37:20.357Z,93948.63
2023-12-12T16:39:47.102Z,93942.28
2023-12-12T16:42:16.030Z,93941.13
2023-12-12T16:44:43.290Z,93940.44
2023-12-12T16:47:10.966Z,93949.75
2023-12-12T16:49:37.961Z,93944.53
2023-12-12T16:52:05.077Z,93944.38
2023-12-12T16:54:34.831Z,93950.56
2023-12-12T16:57:01.625Z,93943.16
2023-12-12T20:31:21.292Z,94006.88
2023-12-12T20:33:48.096Z,94002.69
2023-12-12T20:36:17.704Z,94003.19
2023-12-12T20:38:45.185Z,94016.44
2023-12-12T20:41:12.538Z,94011.75
2023-12-12T20:43:40.190Z,94007.28
2023-12-12T20:46:08.849Z,94010.41
2023-12-12T20:48:35.577Z,93999.03
2023-12-12T20:51:03.416Z,93993.44
2023-12-12T20:53:31.218Z,93990.47
2023-12-12T20:55:58.249Z,93986.09
2023-12-12T20:58:24.904Z,93972.50
2023-12-12T21:00:51.590Z,93975.16
2023-12-12T21:03:18.383Z,93970.66
2023-12-12T21:05:45.065Z,93969.28
2023-12-12T21:08:11.753Z,93968.72
2023-12-12T21:10:40.338Z,93967.16
2023-12-12T21:13:07.227Z,93973.44
2023-12-12T21:15:34.008Z,93971.38
2023-12-12T21:18:00.999Z,93985.69
2023-12-12T21:20:27.849Z,93989.09
2023-12-12T21:22:54.579Z,93987.34
2023-12-12T21:25:21.295Z,93985.88
2023-12-12T21:27:48.152Z,93999.78
2023-12-12T21:30:15.092Z,93993.91
2023-12-12T21:32:42.662Z,93987.09
2023-12-12T21:35:10.286Z,93985.34
2023-12-12T21:37:37.646Z,93984.22
2023-12-12T21:40:06.502Z,93982.31
2023-12-12T21:42:33.330Z,93980.13
2023-12-12T21:44:59.988Z,93979.53
2023-12-12T21:47:26.785Z,93975.44
2023-12-12T21:49:53.654Z,93972.00
2023-12-12T21:52:20.680Z,93972.94
2023-12-12T21:54:47.681Z,93964.56
2023-12-12T21:57:14.506Z,93954.44
2023-12-12T21:59:41.148Z,93964.59
2023-12-12T22:02:07.947Z,93966.38
2023-12-12T22:04:34.706Z,93958.41
2023-12-12T22:07:02.531Z,93949.91
2023-12-12T22:09:29.303Z,93955.31
2023-12-12T22:11:56.061Z,93942.06
2023-12-12T22:14:22.973Z,93951.50
2023-12-12T22:16:49.714Z,93957.28
2023-12-12T22:19:16.524Z,93954.53
2023-12-12T22:21:43.265Z,93962.84
2023-12-12T22:24:09.980Z,93952.41
2023-12-12T22:26:36.727Z,93951.50
2023-12-12T22:29:04.042Z,93956.38
2023-12-12T22:31:30.986Z,93948.03
2023-12-12T22:33:57.870Z,93947.69
2023-12-12T22:36:24.608Z,93940.84
2023-12-12T22:38:51.380Z,93932.91
2023-12-12T22:41:21.752Z,93916.03
2023-12-12T22:43:49.014Z,93916.72
2023-12-12T22:46:20.001Z,93923.47
2023-12-12T22:48:47.328Z,93924.50
2023-12-12T22:51:20.337Z,93922.84
2023-12-12T22:53:47.104Z,93924.50
2023-12-12T22:56:14.411Z,93923.16
2023-12-12T22:58:42.158Z,93927.84
2023-12-12T23:01:11.316Z,93918.16
2023-12-12T23:03:38.245Z,93912.38
2023-12-12T23:06:06.490Z,93917.34
2023-12-12T23:08:36.602Z,93912.34
2023-12-12T23:11:04.003Z,93915.28
2023-12-12T23:13:30.747Z,93897.72
2023-12-12T23:15:57.494Z,93904.22
2023-12-12T23:18:24.374Z,93906.91
2023-12-12T23:20:54.076Z,93900.28
2023-12-12T23:23:23.241Z,93897.13
2023-12-12T23:25:50.193Z,93888.16
2023-12-12T23:28:17.314Z,93872.28
2023-12-12T23:30:57.227Z,93868.50
2023-12-12T23:33:31.971Z,93864.56
2023-12-12T23:35:58.636Z,93863.97
2023-12-12T23:38:25.217Z,93868.59
2023-12-12T23:40:51.882Z,93863.09
2023-12-12T23:43:18.661Z,93870.22
2023-12-12T23:45:46.619Z,93876.63
2023-12-12T23:48:13.434Z,93867.00
2023-12-12T23:50:40.123Z,93886.06
2023-12-12T23:53:07.012Z,93901.88
2023-12-12T23:55:33.876Z,93915.81
2023-12-12T23:58:00.795Z,93922.69
